sensor_id;sensor_type;location;lat;lon;timestamp;pressure;altitude;pressure_sealevel;temperature
20848;BMP180;10584;50.854;12.902;2023-06-26T00:04:00;98213.00;;;16.60
20848;BMP180;10584;50.854;12.902;2023-06-26T00:09:23;98211.00;;;16.50
20848;BMP180;10584;50.854;12.902;2023-06-26T00:14:44;98211.00;;;16.40
20848;BMP180;10584;50.854;12.902;2023-06-26T00:20:06;98203.00;;;16.30
20848;BMP180;10584;50.854;12.902;2023-06-26T00:25:32;98208.00;;;16.20
20848;BMP180;10584;50.854;12.902;2023-06-26T00:30:58;98200.00;;;16.20
20848;BMP180;10584;50.854;12.902;2023-06-26T00:36:35;98200.00;;;16.10
20848;BMP180;10584;50.854;12.902;2023-06-26T00:41:57;98192.00;;;16.00
20848;BMP180;10584;50.854;12.902;2023-06-26T00:47:24;98190.00;;;16.00
20848;BMP180;10584;50.854;12.902;2023-06-26T00:53:06;98194.00;;;15.90
20848;BMP180;10584;50.854;12.902;2023-06-26T00:58:41;98183.00;;;15.90
20848;BMP180;10584;50.854;12.902;2023-06-26T01:04:26;98191.00;;;15.80
20848;BMP180;10584;50.854;12.902;2023-06-26T01:10:14;98180.00;;;15.70
20848;BMP180;10584;50.854;12.902;2023-06-26T01:16:05;98174.00;;;15.70
20848;BMP180;10584;50.854;12.902;2023-06-26T01:21:48;98173.00;;;15.80
20848;BMP180;10584;50.854;12.902;2023-06-26T01:27:38;98170.00;;;15.90
20848;BMP180;10584;50.854;12.902;2023-06-26T01:33:21;98169.00;;;16.00
20848;BMP180;10584;50.854;12.902;2023-06-26T01:39:00;98164.00;;;16.00
20848;BMP180;10584;50.854;12.902;2023-06-26T01:44:29;98158.00;;;16.10
20848;BMP180;10584;50.854;12.902;2023-06-26T01:50:09;98152.00;;;16.10
20848;BMP180;10584;50.854;12.902;2023-06-26T02:00:58;98141.00;;;16.10
20848;BMP180;10584;50.854;12.902;2023-06-26T02:06:29;98134.00;;;16.10
20848;BMP180;10584;50.854;12.902;2023-06-26T02:12:12;98124.00;;;16.10
20848;BMP180;10584;50.854;12.902;2023-06-26T02:17:47;98130.00;;;16.00
20848;BMP180;10584;50.854;12.902;2023-06-26T02:23:26;98128.00;;;16.00
20848;BMP180;10584;50.854;12.902;2023-06-26T02:29:01;98116.00;;;16.00
20848;BMP180;10584;50.854;12.902;2023-06-26T02:34:29;98129.00;;;15.90
20848;BMP180;10584;50.854;12.902;2023-06-26T02:39:51;98118.00;;;15.90
20848;BMP180;10584;50.854;12.902;2023-06-26T02:45:13;98127.00;;;15.80
20848;BMP180;10584;50.854;12.902;2023-06-26T02:50:34;98118.00;;;15.80
20848;BMP180;10584;50.854;12.902;2023-06-26T02:56:03;98117.00;;;15.70
20848;BMP180;10584;50.854;12.902;2023-06-26T03:02:03;98121.00;;;15.70
20848;BMP180;10584;50.854;12.902;2023-06-26T03:07:41;98113.00;;;15.70
20848;BMP180;10584;50.854;12.902;2023-06-26T03:13:04;98106.00;;;15.70
20848;BMP180;10584;50.854;12.902;2023-06-26T03:18:31;98102.00;;;15.80
20848;BMP180;10584;50.854;12.902;2023-06-26T03:24:11;98099.00;;;15.90
20848;BMP180;10584;50.854;12.902;2023-06-26T03:29:37;98101.00;;;16.00
20848;BMP180;10584;50.854;12.902;2023-06-26T03:34:59;98101.00;;;16.20
20848;BMP180;10584;50.854;12.902;2023-06-26T03:40:22;98091.00;;;16.20
20848;BMP180;10584;50.854;12.902;2023-06-26T03:45:47;98095.00;;;16.30
20848;BMP180;10584;50.854;12.902;2023-06-26T03:51:29;98092.00;;;16.50
20848;BMP180;10584;50.854;12.902;2023-06-26T03:56:56;98080.00;;;16.50
20848;BMP180;10584;50.854;12.902;2023-06-26T04:02:27;98088.00;;;16.70
20848;BMP180;10584;50.854;12.902;2023-06-26T04:08:16;98080.00;;;16.90
20848;BMP180;10584;50.854;12.902;2023-06-26T04:13:57;98085.00;;;17.00
20848;BMP180;10584;50.854;12.902;2023-06-26T04:19:18;98084.00;;;17.20
20848;BMP180;10584;50.854;12.902;2023-06-26T04:24:40;98076.00;;;17.30
20848;BMP180;10584;50.854;12.902;2023-06-26T04:30:01;98077.00;;;17.50
20848;BMP180;10584;50.854;12.902;2023-06-26T04:35:23;98081.00;;;17.60
20848;BMP180;10584;50.854;12.902;2023-06-26T04:40:45;98070.00;;;17.70
20848;BMP180;10584;50.854;12.902;2023-06-26T04:46:17;98076.00;;;17.90
20848;BMP180;10584;50.854;12.902;2023-06-26T04:51:55;98071.00;;;18.10
20848;BMP180;10584;50.854;12.902;2023-06-26T04:57:23;98067.00;;;18.40
20848;BMP180;10584;50.854;12.902;2023-06-26T05:03:00;98060.00;;;18.70
20848;BMP180;10584;50.854;12.902;2023-06-26T05:08:39;98055.00;;;19.00
20848;BMP180;10584;50.854;12.902;2023-06-26T05:14:01;98059.00;;;19.30
20848;BMP180;10584;50.854;12.902;2023-06-26T05:19:29;98056.00;;;19.70
20848;BMP180;10584;50.854;12.902;2023-06-26T05:24:52;98045.00;;;20.00
20848;BMP180;10584;50.854;12.902;2023-06-26T05:30:14;98042.00;;;20.30
20848;BMP180;10584;50.854;12.902;2023-06-26T05:35:36;98037.00;;;20.60
20848;BMP180;10584;50.854;12.902;2023-06-26T05:41:02;98043.00;;;21.00
20848;BMP180;10584;50.854;12.902;2023-06-26T05:46:56;98042.00;;;21.30
20848;BMP180;10584;50.854;12.902;2023-06-26T05:52:45;98044.00;;;21.60
20848;BMP180;10584;50.854;12.902;2023-06-26T05:58:25;98033.00;;;22.00
20848;BMP180;10584;50.854;12.902;2023-06-26T06:04:12;98034.00;;;22.30
20848;BMP180;10584;50.854;12.902;2023-06-26T06:09:50;98032.00;;;22.60
20848;BMP180;10584;50.854;12.902;2023-06-26T06:15:11;98027.00;;;22.90
20848;BMP180;10584;50.854;12.902;2023-06-26T06:20:33;98023.00;;;23.20
20848;BMP180;10584;50.854;12.902;2023-06-26T06:26:01;98027.00;;;23.50
20848;BMP180;10584;50.854;12.902;2023-06-26T06:31:51;98036.00;;;23.80
20848;BMP180;10584;50.854;12.902;2023-06-26T06:37:30;98037.00;;;24.00
20848;BMP180;10584;50.854;12.902;2023-06-26T06:43:13;98040.00;;;24.30
20848;BMP180;10584;50.854;12.902;2023-06-26T06:48:45;98031.00;;;24.50
20848;BMP180;10584;50.854;12.902;2023-06-26T06:54:20;98030.00;;;24.60
20848;BMP180;10584;50.854;12.902;2023-06-26T06:59:46;98038.00;;;24.90
20848;BMP180;10584;50.854;12.902;2023-06-26T07:05:16;98024.00;;;25.20
20848;BMP180;10584;50.854;12.902;2023-06-26T07:10:57;98025.00;;;25.40
20848;BMP180;10584;50.854;12.902;2023-06-26T07:16:33;98017.00;;;25.40
20848;BMP180;10584;50.854;12.902;2023-06-26T07:22:13;98012.00;;;25.80
20848;BMP180;10584;50.854;12.902;2023-06-26T07:27:59;98017.00;;;26.00
20848;BMP180;10584;50.854;12.902;2023-06-26T07:33:27;98018.00;;;26.20
20848;BMP180;10584;50.854;12.902;2023-06-26T07:39:12;98025.00;;;26.30
20848;BMP180;10584;50.854;12.902;2023-06-26T07:44:45;98014.00;;;26.50
20848;BMP180;10584;50.854;12.902;2023-06-26T07:50:07;98010.00;;;26.70
20848;BMP180;10584;50.854;12.902;2023-06-26T07:55:31;98017.00;;;26.70
20848;BMP180;10584;50.854;12.902;2023-06-26T08:00:52;98015.00;;;26.90
20848;BMP180;10584;50.854;12.902;2023-06-26T08:06:23;98013.00;;;27.10
20848;BMP180;10584;50.854;12.902;2023-06-26T08:12:18;98006.00;;;27.30
20848;BMP180;10584;50.854;12.902;2023-06-26T08:18:00;98008.00;;;27.40
20848;BMP180;10584;50.854;12.902;2023-06-26T08:23:37;98006.00;;;27.80
20848;BMP180;10584;50.854;12.902;2023-06-26T08:29:20;97998.00;;;27.90
20848;BMP180;10584;50.854;12.902;2023-06-26T08:34:48;97999.00;;;28.00
20848;BMP180;10584;50.854;12.902;2023-06-26T08:40:10;98000.00;;;28.00
20848;BMP180;10584;50.854;12.902;2023-06-26T08:45:33;97997.00;;;28.20
20848;BMP180;10584;50.854;12.902;2023-06-26T08:51:05;98007.00;;;28.50
20848;BMP180;10584;50.854;12.902;2023-06-26T08:56:55;97995.00;;;28.60
20848;BMP180;10584;50.854;12.902;2023-06-26T09:02:52;97997.00;;;28.70
20848;BMP180;10584;50.854;12.902;2023-06-26T09:08:32;97998.00;;;28.90
20848;BMP180;10584;50.854;12.902;2023-06-26T09:14:00;98004.00;;;28.90
20848;BMP180;10584;50.854;12.902;2023-06-26T09:19:27;98004.00;;;29.00
20848;BMP180;10584;50.854;12.902;2023-06-26T09:24:51;97991.00;;;29.00
20848;BMP180;10584;50.854;12.902;2023-06-26T09:30:17;97991.00;;;28.90
20848;BMP180;10584;50.854;12.902;2023-06-26T09:35:39;97993.00;;;29.00
20848;BMP180;10584;50.854;12.902;2023-06-26T09:41:18;97985.00;;;29.20
20848;BMP180;10584;50.854;12.902;2023-06-26T09:47:02;97991.00;;;29.20
20848;BMP180;10584;50.854;12.902;2023-06-26T09:52:32;97991.00;;;29.30
20848;BMP180;10584;50.854;12.902;2023-06-26T09:58:16;97985.00;;;29.60
20848;BMP180;10584;50.854;12.902;2023-06-26T10:04:01;97986.00;;;29.60
20848;BMP180;10584;50.854;12.902;2023-06-26T10:09:45;97986.00;;;29.30
20848;BMP180;10584;50.854;12.902;2023-06-26T10:15:26;97979.00;;;29.50
20848;BMP180;10584;50.854;12.902;2023-06-26T10:20:55;97970.00;;;29.40
20848;BMP180;10584;50.854;12.902;2023-06-26T10:26:51;97967.00;;;29.60
20848;BMP180;10584;50.854;12.902;2023-06-26T10:32:41;97968.00;;;29.80
20848;BMP180;10584;50.854;12.902;2023-06-26T10:38:56;97960.00;;;29.80
20848;BMP180;10584;50.854;12.902;2023-06-26T10:44:24;97968.00;;;29.80
20848;BMP180;10584;50.854;12.902;2023-06-26T10:49:47;97955.00;;;29.90
20848;BMP180;10584;50.854;12.902;2023-06-26T10:55:29;97950.00;;;30.10
20848;BMP180;10584;50.854;12.902;2023-06-26T11:00:51;97937.00;;;30.10
20848;BMP180;10584;50.854;12.902;2023-06-26T11:06:23;97940.00;;;30.00
20848;BMP180;10584;50.854;12.902;2023-06-26T11:17:52;97935.00;;;30.30
20848;BMP180;10584;50.854;12.902;2023-06-26T11:23:56;97936.00;;;30.30
20848;BMP180;10584;50.854;12.902;2023-06-26T11:29:56;97937.00;;;30.40
20848;BMP180;10584;50.854;12.902;2023-06-26T11:35:25;97931.00;;;30.40
20848;BMP180;10584;50.854;12.902;2023-06-26T11:40:59;97926.00;;;30.40
20848;BMP180;10584;50.854;12.902;2023-06-26T11:46:43;97924.00;;;30.70
20848;BMP180;10584;50.854;12.902;2023-06-26T11:52:24;97905.00;;;30.70
20848;BMP180;10584;50.854;12.902;2023-06-26T11:58:00;97914.00;;;31.10
20848;BMP180;10584;50.854;12.902;2023-06-26T12:03:31;97903.00;;;31.20
20848;BMP180;10584;50.854;12.902;2023-06-26T12:09:19;97901.00;;;31.20
20848;BMP180;10584;50.854;12.902;2023-06-26T12:14:40;97896.00;;;31.20
20848;BMP180;10584;50.854;12.902;2023-06-26T12:20:02;97901.00;;;31.40
20848;BMP180;10584;50.854;12.902;2023-06-26T12:25:27;97894.00;;;31.40
20848;BMP180;10584;50.854;12.902;2023-06-26T12:31:11;97892.00;;;31.60
20848;BMP180;10584;50.854;12.902;2023-06-26T12:37:08;97887.00;;;31.50
20848;BMP180;10584;50.854;12.902;2023-06-26T12:42:54;97891.00;;;31.30
20848;BMP180;10584;50.854;12.902;2023-06-26T12:48:44;97889.00;;;31.30
20848;BMP180;10584;50.854;12.902;2023-06-26T12:54:08;97881.00;;;31.20
20848;BMP180;10584;50.854;12.902;2023-06-26T12:59:44;97869.00;;;31.50
20848;BMP180;10584;50.854;12.902;2023-06-26T13:05:12;97864.00;;;31.50
20848;BMP180;10584;50.854;12.902;2023-06-26T13:10:59;97860.00;;;31.60
20848;BMP180;10584;50.854;12.902;2023-06-26T13:16:30;97850.00;;;31.60
20848;BMP180;10584;50.854;12.902;2023-06-26T13:22:01;97847.00;;;31.60
20848;BMP180;10584;50.854;12.902;2023-06-26T13:27:46;97843.00;;;31.60
20848;BMP180;10584;50.854;12.902;2023-06-26T13:33:27;97842.00;;;31.40
20848;BMP180;10584;50.854;12.902;2023-06-26T13:38:57;97827.00;;;31.40
20848;BMP180;10584;50.854;12.902;2023-06-26T13:44:25;97820.00;;;31.70
20848;BMP180;10584;50.854;12.902;2023-06-26T13:50:01;97813.00;;;31.60
20848;BMP180;10584;50.854;12.902;2023-06-26T13:55:23;97813.00;;;31.90
20848;BMP180;10584;50.854;12.902;2023-06-26T14:00:45;97813.00;;;31.80
20848;BMP180;10584;50.854;12.902;2023-06-26T14:06:17;97809.00;;;31.60
20848;BMP180;10584;50.854;12.902;2023-06-26T14:12:10;97793.00;;;31.30
20848;BMP180;10584;50.854;12.902;2023-06-26T14:17:51;97776.00;;;31.40
20848;BMP180;10584;50.854;12.902;2023-06-26T14:23:28;97774.00;;;31.50
20848;BMP180;10584;50.854;12.902;2023-06-26T14:28:57;97752.00;;;31.40
20848;BMP180;10584;50.854;12.902;2023-06-26T14:34:26;97744.00;;;31.60
20848;BMP180;10584;50.854;12.902;2023-06-26T14:39:53;97746.00;;;31.80
20848;BMP180;10584;50.854;12.902;2023-06-26T14:45:14;97741.00;;;31.50
20848;BMP180;10584;50.854;12.902;2023-06-26T14:50:37;97729.00;;;31.70
20848;BMP180;10584;50.854;12.902;2023-06-26T14:56:04;97722.00;;;31.70
20848;BMP180;10584;50.854;12.902;2023-06-26T15:01:59;97715.00;;;31.30
20848;BMP180;10584;50.854;12.902;2023-06-26T15:07:44;97733.00;;;30.80
20848;BMP180;10584;50.854;12.902;2023-06-26T15:13:13;97730.00;;;30.60
20848;BMP180;10584;50.854;12.902;2023-06-26T15:18:55;97828.00;;;28.50
20848;BMP180;10584;50.854;12.902;2023-06-26T15:24:27;97885.00;;;25.20
20848;BMP180;10584;50.854;12.902;2023-06-26T15:29:49;97874.00;;;24.00
20848;BMP180;10584;50.854;12.902;2023-06-26T15:35:10;97852.00;;;23.10
20848;BMP180;10584;50.854;12.902;2023-06-26T15:40:32;97822.00;;;23.10
20848;BMP180;10584;50.854;12.902;2023-06-26T15:46:00;97828.00;;;22.20
20848;BMP180;10584;50.854;12.902;2023-06-26T15:51:33;97821.00;;;22.00
20848;BMP180;10584;50.854;12.902;2023-06-26T15:57:16;97836.00;;;22.10
20848;BMP180;10584;50.854;12.902;2023-06-26T16:03:09;97847.00;;;22.40
20848;BMP180;10584;50.854;12.902;2023-06-26T16:08:59;97851.00;;;22.30
20848;BMP180;10584;50.854;12.902;2023-06-26T16:14:38;97852.00;;;22.30
20848;BMP180;10584;50.854;12.902;2023-06-26T16:19:59;97858.00;;;22.30
20848;BMP180;10584;50.854;12.902;2023-06-26T16:25:20;97872.00;;;22.10
20848;BMP180;10584;50.854;12.902;2023-06-26T16:30:42;97881.00;;;22.10
20848;BMP180;10584;50.854;12.902;2023-06-26T16:36:19;97892.00;;;22.20
20848;BMP180;10584;50.854;12.902;2023-06-26T16:41:55;97893.00;;;22.10
20848;BMP180;10584;50.854;12.902;2023-06-26T16:47:40;97889.00;;;22.20
20848;BMP180;10584;50.854;12.902;2023-06-26T16:53:24;97903.00;;;22.40
20848;BMP180;10584;50.854;12.902;2023-06-26T16:59:01;97912.00;;;22.60
20848;BMP180;10584;50.854;12.902;2023-06-26T17:04:32;97911.00;;;22.60
20848;BMP180;10584;50.854;12.902;2023-06-26T17:10:14;97940.00;;;22.60
20848;BMP180;10584;50.854;12.902;2023-06-26T17:15:36;97960.00;;;22.20
20848;BMP180;10584;50.854;12.902;2023-06-26T17:21:02;97954.00;;;21.90
20848;BMP180;10584;50.854;12.902;2023-06-26T17:26:50;97961.00;;;21.90
20848;BMP180;10584;50.854;12.902;2023-06-26T17:32:51;97987.00;;;21.50
20848;BMP180;10584;50.854;12.902;2023-06-26T17:38:24;97981.00;;;21.10
20848;BMP180;10584;50.854;12.902;2023-06-26T17:43:58;97988.00;;;20.90
20848;BMP180;10584;50.854;12.902;2023-06-26T17:49:26;97998.00;;;20.80
20848;BMP180;10584;50.854;12.902;2023-06-26T17:54:53;98000.00;;;20.80
20848;BMP180;10584;50.854;12.902;2023-06-26T18:00:16;98003.00;;;20.80
20848;BMP180;10584;50.854;12.902;2023-06-26T18:05:45;98007.00;;;20.60
20848;BMP180;10584;50.854;12.902;2023-06-26T18:11:28;98005.00;;;20.70
20848;BMP180;10584;50.854;12.902;2023-06-26T18:17:19;98001.00;;;20.80
20848;BMP180;10584;50.854;12.902;2023-06-26T18:22:54;98011.00;;;20.80
20848;BMP180;10584;50.854;12.902;2023-06-26T18:28:19;98009.00;;;20.80
20848;BMP180;10584;50.854;12.902;2023-06-26T18:33:58;98009.00;;;20.80
20848;BMP180;10584;50.854;12.902;2023-06-26T18:39:25;98015.00;;;20.80
20848;BMP180;10584;50.854;12.902;2023-06-26T18:44:51;98034.00;;;20.80
20848;BMP180;10584;50.854;12.902;2023-06-26T18:50:13;98043.00;;;20.80
20848;BMP180;10584;50.854;12.902;2023-06-26T18:55:36;98046.00;;;20.80
20848;BMP180;10584;50.854;12.902;2023-06-26T19:00:57;98065.00;;;20.80
20848;BMP180;10584;50.854;12.902;2023-06-26T19:06:28;98054.00;;;20.80
20848;BMP180;10584;50.854;12.902;2023-06-26T19:12:14;98050.00;;;20.80
20848;BMP180;10584;50.854;12.902;2023-06-26T19:17:44;98040.00;;;20.80
20848;BMP180;10584;50.854;12.902;2023-06-26T19:23:19;98051.00;;;20.80
20848;BMP180;10584;50.854;12.902;2023-06-26T19:28:40;98056.00;;;20.80
20848;BMP180;10584;50.854;12.902;2023-06-26T19:34:04;98055.00;;;20.80
20848;BMP180;10584;50.854;12.902;2023-06-26T19:39:30;98067.00;;;20.80
20848;BMP180;10584;50.854;12.902;2023-06-26T19:44:51;98059.00;;;20.80
20848;BMP180;10584;50.854;12.902;2023-06-26T19:50:13;98069.00;;;20.70
20848;BMP180;10584;50.854;12.902;2023-06-26T19:55:35;98067.00;;;20.70
20848;BMP180;10584;50.854;12.902;2023-06-26T20:00:56;98066.00;;;20.60
20848;BMP180;10584;50.854;12.902;2023-06-26T20:06:24;98067.00;;;20.60
20848;BMP180;10584;50.854;12.902;2023-06-26T20:12:09;98073.00;;;20.60
20848;BMP180;10584;50.854;12.902;2023-06-26T20:17:40;98073.00;;;20.60
20848;BMP180;10584;50.854;12.902;2023-06-26T20:23:26;98071.00;;;20.60
20848;BMP180;10584;50.854;12.902;2023-06-26T20:28:57;98069.00;;;20.40
20848;BMP180;10584;50.854;12.902;2023-06-26T20:34:25;98070.00;;;20.40
20848;BMP180;10584;50.854;12.902;2023-06-26T20:39:50;98074.00;;;20.30
20848;BMP180;10584;50.854;12.902;2023-06-26T20:45:12;98063.00;;;20.30
20848;BMP180;10584;50.854;12.902;2023-06-26T20:50:34;98063.00;;;20.30
20848;BMP180;10584;50.854;12.902;2023-06-26T20:56:03;98066.00;;;20.30
20848;BMP180;10584;50.854;12.902;2023-06-26T21:02:05;98075.00;;;20.10
20848;BMP180;10584;50.854;12.902;2023-06-26T21:07:49;98072.00;;;20.20
20848;BMP180;10584;50.854;12.902;2023-06-26T21:13:16;98087.00;;;20.10
20848;BMP180;10584;50.854;12.902;2023-06-26T21:18:55;98087.00;;;19.90
20848;BMP180;10584;50.854;12.902;2023-06-26T21:24:24;98093.00;;;19.80
20848;BMP180;10584;50.854;12.902;2023-06-26T21:29:45;98097.00;;;19.40
20848;BMP180;10584;50.854;12.902;2023-06-26T21:35:07;98101.00;;;19.30
20848;BMP180;10584;50.854;12.902;2023-06-26T21:40:29;98100.00;;;19.20
20848;BMP180;10584;50.854;12.902;2023-06-26T21:45:58;98102.00;;;19.20
20848;BMP180;10584;50.854;12.902;2023-06-26T21:51:50;98095.00;;;19.00
20848;BMP180;10584;50.854;12.902;2023-06-26T21:57:30;98096.00;;;19.00
20848;BMP180;10584;50.854;12.902;2023-06-26T22:03:07;98094.00;;;18.70
20848;BMP180;10584;50.854;12.902;2023-06-26T22:09:05;98103.00;;;18.60
20848;BMP180;10584;50.854;12.902;2023-06-26T22:15:02;98108.00;;;18.70
20848;BMP180;10584;50.854;12.902;2023-06-26T22:20:29;98106.00;;;18.40
20848;BMP180;10584;50.854;12.902;2023-06-26T22:25:57;98098.00;;;18.30
20848;BMP180;10584;50.854;12.902;2023-06-26T22:31:50;98118.00;;;18.30
20848;BMP180;10584;50.854;12.902;2023-06-26T22:37:38;98133.00;;;18.20
20848;BMP180;10584;50.854;12.902;2023-06-26T22:43:25;98134.00;;;18.00
20848;BMP180;10584;50.854;12.902;2023-06-26T22:49:01;98136.00;;;18.10
20848;BMP180;10584;50.854;12.902;2023-06-26T22:54:27;98141.00;;;17.90
20848;BMP180;10584;50.854;12.902;2023-06-26T22:59:51;98134.00;;;17.90
20848;BMP180;10584;50.854;12.902;2023-06-26T23:05:21;98156.00;;;17.90
20848;BMP180;10584;50.854;12.902;2023-06-26T23:11:22;98158.00;;;17.80
20848;BMP180;10584;50.854;12.902;2023-06-26T23:17:07;98159.00;;;17.70
20848;BMP180;10584;50.854;12.902;2023-06-26T23:22:41;98176.00;;;17.70
20848;BMP180;10584;50.854;12.902;2023-06-26T23:28:19;98175.00;;;17.60
20848;BMP180;10584;50.854;12.902;2023-06-26T23:33:55;98172.00;;;17.70
20848;BMP180;10584;50.854;12.902;2023-06-26T23:39:24;98176.00;;;17.60
20848;BMP180;10584;50.854;12.902;2023-06-26T23:44:45;98180.00;;;17.50
20848;BMP180;10584;50.854;12.902;2023-06-26T23:50:11;98170.00;;;17.40
20848;BMP180;10584;50.854;12.902;2023-06-26T23:55:33;98174.00;;;17.50
